4I3

Knox County Airport

Mount Vernon, Ohio, USA
METAR K4I3 211536Z AUTO 00000KT 10SM CLR M15/M19 A3053 RMK AO2
Observed Flight Rules
Jan-21 @ 15:36 UTC (21 minutes ago) Visual Flight Rules
Visibility Clouds
10 miles
  • Clear skies
Temperatures Readings
Current -15°C / 5°F
Dewpoint -19°C / -2°F
Humidity 72%
Altimeter 30.53" Hg
Pressure 1033.81 hPa
Elevation 363
METAR K4I3 211536Z AUTO 00000KT 10SM CLR M15/M19 A3053 RMK AO2
Observed Flight Rules
Jan-21 @ 15:36 UTC
(21 minutes ago)
VFR
Clouds
  • Clear skies
Temperature Dewpoint
-15°C / 5°F -19°C / -2°F
Humidity Altimeter Pressure
72% 30.53" Hg 1033.81 hPa